Flight Track Log - Related Links

Times and Time Zones

All times are in EDT time to prevent confusion due to time zone crossing. See the UAL252 flight status page for this flight to view local times or setup timezone preferences in your user account.

Time Position Orientation Groundspeed Altitude Reporting Facility
EDT Latitude Longitude Course Direction KTS MPH feet Rate Location/Type
Sun 12:53:07 PM 37.6000 -122.3167 65° Northeast 197 227 1,700  Level Northern Cal TRACON
Sun 12:54:07 PM 37.5833 -122.2333 104° East 237 273 4,300 2,947 Climbing Northern Cal TRACON
Sun 12:55:00 PM 37.7113 -121.8594 45° Northeast  Level FlightAware Approximate
Sun 12:55:01 PM 37.5833 -122.1500 90° East 270 311 7,300  Level Northern Cal TRACON
Sun 12:56:00 PM 37.7953 -121.7428 58° Northeast  Level FlightAware Approximate
Sun 12:57:00 PM 37.8499 -121.6003 65° Northeast  Level FlightAware Approximate
Sun 12:57:16 PM 37.6656 -121.9453 63° Northeast 340 391 12,100  Level Oakland Center
Sun 12:58:00 PM 37.9035 -121.4573 65° Northeast  Level FlightAware Approximate
Sun 12:58:17 PM 37.7258 -121.8103 61° Northeast 367 422 15,100  Level Oakland Center
Sun 12:59:18 PM 37.7775 -121.6953 60° Northeast 376 433 17,400 2,000 Climbing Oakland Center
Sun 01:00:20 PM 37.8294 -121.5728 62° Northeast 395 455 19,200 1,707 Climbing Oakland Center
Sun 01:01:21 PM 37.8839 -121.4464 61° Northeast 410 472 20,900 1,574 Climbing Oakland Center
Sun 01:02:22 PM 37.9408 -121.3125 62° Northeast 426 490 22,400 1,328 Climbing Oakland Center
Sun 01:03:23 PM 38.0006 -121.1756 61° Northeast 439 505 23,600 1,415 Climbing Oakland Center
Sun 01:04:25 PM 38.0611 -121.0333 62° Northeast 455 524 25,300 1,756 Climbing Oakland Center
Sun 01:05:26 PM 38.1117 -120.8536 70° East 454 522 27,200 1,475 Climbing Oakland Center
Sun 01:06:27 PM 38.1428 -120.6981 76° East 455 524 28,300 1,073 Climbing Oakland Center
Sun 01:07:29 PM 38.1714 -120.5361 77° East 466 536 29,400 1,268 Climbing Oakland Center
Sun 01:08:30 PM 38.2014 -120.3733 77° East 472 543 30,900 1,475 Climbing Oakland Center
Sun 01:09:31 PM 38.2292 -120.2128 78° East 470 541 32,400 1,426 Climbing Oakland Center
Sun 01:10:32 PM 38.2561 -120.0550 78° East 461 531 33,800 1,268 Climbing Oakland Center
Sun 01:11:34 PM 38.2803 -119.9000 79° East 452 520 35,000 585 Climbing Oakland Center
Sun 01:12:35 PM 38.3072 -119.7425 78° East 455 524 35,000  Level Oakland Center
Sun 01:13:36 PM 38.3358 -119.5761 78° East 477 549 35,000  Level Oakland Center
Sun 01:14:37 PM 38.3683 -119.3800 78° East 476 548 35,000  Level Oakland Center
Sun 01:15:39 PM 38.3961 -119.2158 78° East 476 548 35,000  Level Oakland Center
Sun 01:16:40 PM 38.4231 -119.0517 78° East 476 548 35,000  Level Oakland Center
Sun 01:17:41 PM 38.4494 -118.8867 78° East 477 549 35,000  Level Oakland Center
Sun 01:18:43 PM 38.4761 -118.7233 78° East 474 545 35,000  Level Oakland Center
Sun 01:19:44 PM 38.5022 -118.5594 78° East 474 545 35,000  Level Oakland Center
Sun 01:20:45 PM 38.5294 -118.3944 78° East 478 550 35,000  Level Oakland Center
Sun 01:21:47 PM 38.5544 -118.2306 79° East 475 547 35,000  Level Oakland Center
Sun 01:22:48 PM 38.5819 -118.0514 79° East 473 544 35,000  Level Oakland Center
Sun 01:23:49 PM 38.6075 -117.8856 79° East 474 545 35,000  Level Oakland Center
Sun 01:24:50 PM 38.6331 -117.7194 79° East 474 545 35,000  Level Oakland Center
Sun 01:25:52 PM 38.6581 -117.5519 79° East 475 547 35,000  Level Oakland Center
Sun 01:26:53 PM 38.6831 -117.3844 79° East 476 548 35,000  Level Oakland Center
Sun 01:27:21 PM 38.6975 -117.2831 80° East 477 549 35,000  Level Salt Lake Center
Sun 01:28:22 PM 38.7222 -117.1153 79° East 477 549 35,000  Level Salt Lake Center
Sun 01:28:56 PM 38.7325 -117.0478 79° East 478 550 35,000  Level Oakland Center
Sun 01:29:57 PM 38.7622 -116.8428 79° East 484 557 35,000  Level Oakland Center
Sun 01:30:25 PM 38.7722 -116.7747 79° East 484 557 35,000  Level Salt Lake Center
Sun 01:31:27 PM 38.7956 -116.6053 80° East 482 555 35,000  Level Salt Lake Center
Sun 01:32:00 PM 38.8117 -116.5039 78° East 482 555 35,000  Level Oakland Center
Sun 01:33:01 PM 38.8344 -116.3325 80° East 485 558 35,000  Level Oakland Center
Sun 01:33:30 PM 38.8447 -116.2650 79° East 484 557 35,000  Level Salt Lake Center
Sun 01:34:31 PM 38.8672 -116.0933 80° East 486 559 35,000  Level Salt Lake Center
Sun 01:35:33 PM 38.8908 -115.9219 80° East 486 559 35,000  Level Salt Lake Center
Sun 01:36:35 PM 38.9144 -115.7508 80° East 486 559 35,000  Level Salt Lake Center
Sun 01:37:36 PM 38.9417 -115.5450 80° East 488 562 35,000  Level Salt Lake Center
Sun 01:38:38 PM 38.9619 -115.3794 81° East 485 558 35,000  Level Salt Lake Center
Sun 01:39:40 PM 38.9850 -115.2161 80° East 489 563 35,000  Level Salt Lake Center
Sun 01:40:41 PM 39.0064 -115.0464 81° East 484 557 35,000  Level Salt Lake Center
Sun 01:41:43 PM 39.0328 -114.8408 81° East 485 558 35,000  Level Salt Lake Center
Sun 01:42:45 PM 39.0547 -114.6678 81° East 487 560 35,000 439 Level Salt Lake Center
Sun 01:43:46 PM 39.0808 -114.4961 79° East 491 565 35,900 976 Climbing Salt Lake Center
Sun 01:44:48 PM 39.1100 -114.3336 77° East 475 547 37,000 532 Climbing Salt Lake Center
Sun 01:45:50 PM 39.1392 -114.1667 77° East 473 544 37,000  Level Salt Lake Center
Sun 01:46:52 PM 39.1706 -113.9939 77° East 488 562 37,000  Level Salt Lake Center
Sun 01:47:53 PM 39.2006 -113.8239 77° East 487 560 37,000  Level Salt Lake Center
Sun 01:48:55 PM 39.2289 -113.6572 78° East 478 550 37,000  Level Salt Lake Center
Sun 01:49:57 PM 39.2642 -113.4542 77° East 484 557 37,000  Level Salt Lake Center
Sun 01:50:59 PM 39.2936 -113.2825 77° East 488 562 37,000 48 Level Salt Lake Center
Sun 01:52:01 PM 39.3222 -113.1119 78° East 487 560 37,100  Climbing Salt Lake Center
Sun 01:53:03 PM 39.3511 -112.9414 78° East 486 559 37,000 -48 Descending Salt Lake Center
Sun 01:54:05 PM 39.3783 -112.7714 78° East 484 557 37,000  Level Salt Lake Center
Sun 01:55:06 PM 39.4106 -112.5803 78° East 485 558 37,000  Level Salt Lake Center
Sun 01:56:08 PM 39.4392 -112.4075 78° East 493 567 37,000  Level Salt Lake Center
Sun 01:57:10 PM 39.4661 -112.2356 78° East 492 566 37,000  Level Salt Lake Center
Sun 01:58:12 PM 39.4942 -112.0628 78° East 492 566 37,000  Level Salt Lake Center
Sun 01:59:14 PM 39.5208 -111.8914 79° East 490 564 37,000 -48 Level Salt Lake Center
Sun 02:00:16 PM 39.5536 -111.6844 78° East 491 565 36,900 48 Descending Salt Lake Center
Sun 02:01:18 PM 39.5803 -111.5069 79° East 501 577 37,100 97 Climbing Salt Lake Center
Sun 02:02:20 PM 39.6072 -111.3314 79° East 500 575 37,100 -49 Level Salt Lake Center
Sun 02:03:21 PM 39.6331 -111.1542 79° East 500 575 37,000 -49 Descending Salt Lake Center
Sun 02:04:23 PM 39.6617 -110.9592 79° East 494 568 37,000  Level Salt Lake Center
Sun 02:05:25 PM 39.6875 -110.7942 78° East 491 565 37,000  Level Salt Lake Center
Sun 02:06:27 PM 39.7147 -110.5989 80° East 494 568 37,000  Level Salt Lake Center
Sun 02:07:29 PM 39.7386 -110.4306 79° East 495 570 37,000 48 Level Salt Lake Center
Sun 02:08:31 PM 39.7636 -110.2617 79° East 497 572 37,100  Climbing Salt Lake Center
Sun 02:09:33 PM 39.7917 -110.0664 79° East 494 568 37,000 -48 Descending Salt Lake Center
Sun 02:10:35 PM 39.8142 -109.8986 80° East 492 566 37,000  Level Salt Lake Center
Sun 02:11:36 PM 39.8403 -109.7028 80° East 491 565 37,000  Level Salt Lake Center
Sun 02:12:26 PM 39.8592 -109.5603 80° East 494 568 37,000  Level Denver Center
Sun 02:13:28 PM 39.8817 -109.3897 80° East 499 574 37,000  Level Denver Center
Sun 02:14:30 PM 39.9083 -109.1914 80° East 496 571 37,000  Level Denver Center
Sun 02:15:32 PM 39.9303 -109.0208 80° East 496 571 37,000  Level Denver Center
Sun 02:16:34 PM 39.9567 -108.8208 80° East 495 570 37,000  Level Denver Center
Sun 02:17:36 PM 39.9786 -108.6489 80° East 496 571 37,000  Level Denver Center
Sun 02:18:38 PM 39.9997 -108.4786 81° East 495 570 37,000  Level Denver Center
Sun 02:19:40 PM 40.0242 -108.2786 81° East 497 572 37,000  Level Denver Center
Sun 02:20:42 PM 40.0450 -108.1089 81° East 495 570 37,000  Level Denver Center
Sun 02:21:44 PM 40.0706 -107.9086 80° East 498 573 37,000  Level Denver Center
Sun 02:22:58 PM 40.1047 -107.7406 75° East 499 574 37,000  Level Denver Center
Sun 02:24:00 PM 40.1500 -107.5172 75° East 499 574 37,000  Level Denver Center
Sun 02:25:02 PM 40.1833 -107.3483 75° East 500 575 37,000  Level Denver Center
Sun 02:26:04 PM 40.2217 -107.1514 76° East 501 577 37,000 -242 Level Denver Center
Sun 02:27:06 PM 40.2567 -106.9819 75° East 503 579 36,500 -1,344 Descending Denver Center
Sun 02:28:09 PM 40.2897 -106.8092 76° East 503 579 34,200 -2,304 Descending Denver Center
Sun 02:29:11 PM 40.3256 -106.6303 75° East 505 581 31,700 -2,419 Descending Denver Center
Sun 02:30:13 PM 40.3642 -106.4206 76° East 491 565 29,200 -2,177 Descending Denver Center
Sun 02:31:15 PM 40.3944 -106.2644 76° East 466 536 27,200 -2,129 Descending Denver Center
Sun 02:32:17 PM 40.4264 -106.0944 76° East 451 519 24,800 -2,081 Descending Denver Center
Sun 02:33:19 PM 40.4364 -105.9403 85° East 428 493 22,900 -1,935 Descending Denver Center
Sun 02:34:21 PM 40.4142 -105.7894 101° East 418 481 20,800 -1,742 Descending Denver Center
Sun 02:35:23 PM 40.3906 -105.6461 102° East 401 461 19,300 -1,368 Descending Denver Center
Sun 02:36:37 PM 40.3697 -105.5131 102° East 374 430 17,700 -1,235 Descending Denver Center
Sun 02:37:39 PM 40.3447 -105.3553 102° East 329 379 16,500 -1,500 Descending Denver Center
Sun 02:38:41 PM 40.3289 -105.2294 99° East 325 374 14,600 -1,452 Descending Denver Center
Sun 02:39:43 PM 40.3125 -105.1153 101° East 318 366 13,500 -677 Descending Denver Center
Sun 02:40:45 PM 40.2756 -105.0097 115° Southeast 302 348 13,200 -242 Descending Denver Center
Sun 02:41:47 PM 40.2406 -104.9083 114° Southeast 305 351 13,000 -1,306 Descending Denver Center
Sun 02:42:49 PM 40.1925 -104.8067 122° Southeast 316 364 10,500 -1,306 Descending Denver Center
Sun 02:43:51 PM 40.1267 -104.7647 154° Southeast 252 290 10,300 -823 Descending Denver Center
Sun 02:44:53 PM 40.0681 -104.7347 159° South 227 261 8,800 -1,452 Descending Denver Center

Login

Don't have an account? Register now (free) for customized features, flight alerts, and more!